UKV6597 AYHX-AYGD

Flight info

Callsign UKV6597
Flight time 0h 13m
Altitude 10000
Route DCT
Aircraft C208/L-V/N

Departure

Time 2026-05-09 18:05
Airport Herowena Airstrip (AYHX)

Arrival

Time 2026-05-09 18:18
Airport Gimi Airstrip (AYGD)
Time Latitude Longitude Altitude Speed Heading
2026-05-09 17:47 -6.61991 145.19666 4712 ft 0 kts 167°
2026-05-09 18:03 -6.61995 145.19678 4712 ft 7 kts 93°
2026-05-09 18:03 -6.62020 145.19703 4712 ft 0 kts 179°
2026-05-09 18:04 -6.62144 145.19722 4709 ft 51 kts 171°
2026-05-09 18:04 -6.62646 145.19812 4855 ft 82 kts 169°
2026-05-09 18:04 -6.63054 145.20139 5147 ft 79 kts 87°
2026-05-09 18:05 -6.62703 145.20382 5495 ft 68 kts 37°
2026-05-09 18:05 -6.62697 145.20875 5765 ft 77 kts 124°
2026-05-09 18:05 -6.62974 145.21434 5999 ft 91 kts 94°
2026-05-09 18:05 -6.62933 145.22054 6418 ft 81 kts 62°
2026-05-09 18:06 -6.62425 145.22200 6712 ft 87 kts 343°
2026-05-09 18:06 -6.61849 145.22359 6961 ft 99 kts 54°
2026-05-09 18:06 -6.61720 145.23046 7226 ft 105 kts 98°
2026-05-09 18:06 -6.61684 145.23806 7544 ft 110 kts 83°
2026-05-09 18:07 -6.61577 145.24589 7916 ft 114 kts 83°
2026-05-09 18:07 -6.61465 145.25382 8318 ft 111 kts 83°
2026-05-09 18:07 -6.61409 145.26182 8619 ft 121 kts 92°
2026-05-09 18:07 -6.61553 145.27035 8875 ft 128 kts 105°
2026-05-09 18:08 -6.61780 145.27921 9129 ft 133 kts 104°
2026-05-09 18:08 -6.61999 145.28831 9377 ft 135 kts 104°
2026-05-09 18:08 -6.62213 145.29744 9626 ft 137 kts 104°
2026-05-09 18:08 -6.62443 145.30737 9531 ft 163 kts 104°
2026-05-09 18:09 -6.62724 145.31929 9295 ft 185 kts 104°
2026-05-09 18:09 -6.63023 145.33223 9048 ft 194 kts 104°
2026-05-09 18:09 -6.63323 145.34524 9003 ft 187 kts 103°
2026-05-09 18:09 -6.63613 145.35782 9003 ft 182 kts 104°
2026-05-09 18:10 -6.63895 145.37013 9001 ft 180 kts 103°
2026-05-09 18:10 -6.64082 145.37821 9001 ft 178 kts 103°
2026-05-09 18:10 -6.64459 145.39437 8676 ft 170 kts 104°
2026-05-09 18:10 -6.64723 145.40560 8033 ft 163 kts 104°
2026-05-09 18:11 -6.65019 145.41647 7295 ft 160 kts 118°
2026-05-09 18:11 -6.65842 145.42347 6581 ft 157 kts 161°
2026-05-09 18:11 -6.66896 145.42509 5993 ft 150 kts 193°
2026-05-09 18:11 -6.67653 145.41855 5792 ft 143 kts 250°
2026-05-09 18:12 -6.67475 145.40958 5630 ft 132 kts 311°
2026-05-09 18:12 -6.66754 145.40593 5689 ft 112 kts 347°
2026-05-09 18:12 -6.66166 145.40174 5716 ft 97 kts 295°
2026-05-09 18:12 -6.65701 145.39620 5678 ft 110 kts 346°
2026-05-09 18:13 -6.65043 145.39934 5171 ft 116 kts 27°
2026-05-09 18:13 -6.64283 145.40261 5426 ft 107 kts 37°
2026-05-09 18:13 -6.64490 145.40580 5513 ft 81 kts 198°
2026-05-09 18:13 -6.65082 145.40437 5543 ft 98 kts 186°
2026-05-09 18:14 -6.65714 145.40293 5354 ft 87 kts 233°
2026-05-09 18:14 -6.65591 145.39773 5347 ft 70 kts 283°
2026-05-09 18:14 -6.65261 145.39384 5468 ft 82 kts 341°
2026-05-09 18:14 -6.64875 145.39502 5367 ft 120 kts 113°
2026-05-09 18:15 -6.65116 145.39707 5245 ft 118 kts 165°
2026-05-09 18:17 -6.65714 145.39866 5272 ft 106 kts 162°
2026-05-09 18:17 -6.66405 145.40066 5471 ft 100 kts 183°
2026-05-09 18:18 -6.66374 145.39684 5589 ft 92 kts
2026-05-09 18:18 -6.65745 145.39768 5381 ft 100 kts 12°
2026-05-09 18:18 -6.65076 145.39946 5081 ft 92 kts 22°
2026-05-09 18:18 -6.64833 145.40044 5092 ft 3 kts 18°
2026-05-09 18:19 -6.64751 145.40098 5105 ft 0 kts 23°